createdAt,value
2019-05-11T00:01:41.689Z,13.47
2019-05-11T00:04:10.859Z,16.17
2019-05-11T00:06:39.951Z,15.63
2019-05-11T00:09:08.996Z,16.33
2019-05-11T00:11:38.095Z,14.77
2019-05-11T00:14:06.894Z,12.53
2019-05-11T00:16:35.672Z,15.70
2019-05-11T00:19:04.462Z,14.93
2019-05-11T00:21:33.518Z,15.27
2019-05-11T00:24:02.295Z,12.97
2019-05-11T00:26:31.066Z,15.20
2019-05-11T00:28:59.839Z,18.27
2019-05-11T00:31:28.927Z,12.23
2019-05-11T00:33:57.964Z,11.87
2019-05-11T00:36:26.736Z,16.30
2019-05-11T00:38:55.569Z,14.30
2019-05-11T00:41:24.419Z,13.53
2019-05-11T00:43:53.236Z,16.30
2019-05-11T00:46:22.070Z,17.77
2019-05-11T00:48:50.869Z,15.53
2019-05-11T00:51:19.623Z,13.03
2019-05-11T00:53:48.403Z,14.17
2019-05-11T00:56:17.249Z,14.63
2019-05-11T00:58:46.047Z,14.70
2019-05-11T01:01:14.822Z,13.77
2019-05-11T01:03:43.609Z,13.10
2019-05-11T01:06:12.367Z,13.80
2019-05-11T01:08:41.148Z,15.00
2019-05-11T01:11:10.244Z,14.40
2019-05-11T01:13:39.018Z,14.27
2019-05-11T01:16:07.792Z,13.93
2019-05-11T01:18:36.568Z,15.53
2019-05-11T01:21:05.458Z,17.67
2019-05-11T01:23:34.275Z,13.57
2019-05-11T01:26:03.048Z,15.07
2019-05-11T01:28:31.828Z,14.00
2019-05-11T01:31:00.953Z,13.67
2019-05-11T01:33:30.496Z,13.20
2019-05-11T01:35:59.617Z,16.03
2019-05-11T01:38:28.404Z,13.50
2019-05-11T01:40:58.988Z,14.03
2019-05-11T01:43:27.670Z,15.47
2019-05-11T01:45:56.472Z,13.43
2019-05-11T01:48:25.260Z,16.93
2019-05-11T01:50:54.029Z,16.40
2019-05-11T01:53:22.800Z,15.40
2019-05-11T01:55:51.580Z,18.47
2019-05-11T01:58:21.228Z,15.97
2019-05-11T02:00:50.305Z,16.83
2019-05-11T02:03:19.131Z,15.97
2019-05-11T02:05:51.560Z,13.57
2019-05-11T02:08:18.774Z,14.43
2019-05-11T02:10:47.551Z,14.53
2019-05-11T02:13:16.319Z,15.50
2019-05-11T02:15:45.421Z,16.40
2019-05-11T02:18:14.191Z,16.27
2019-05-11T02:20:43.378Z,15.50
2019-05-11T02:23:12.163Z,16.37
2019-05-11T02:25:40.999Z,14.67
2019-05-11T02:28:09.875Z,14.97
2019-05-11T02:30:38.995Z,16.07
2019-05-11T02:33:08.038Z,17.57
2019-05-11T02:35:36.815Z,15.97
2019-05-11T02:38:06.045Z,15.77
2019-05-11T02:40:34.954Z,17.23
2019-05-11T02:43:03.905Z,17.53
2019-05-11T02:45:38.883Z,16.70
2019-05-11T02:48:07.874Z,15.80
2019-05-11T02:50:38.308Z,15.97
2019-05-11T02:53:07.836Z,14.97
2019-05-11T02:55:37.091Z,13.47
2019-05-11T02:58:07.257Z,13.00
2019-05-11T03:00:38.658Z,14.97
2019-05-11T03:03:07.612Z,16.03
2019-05-11T03:05:36.624Z,15.00
2019-05-11T03:08:05.761Z,12.53
2019-05-11T03:10:35.113Z,13.83
2019-05-11T03:13:03.956Z,17.77
2019-05-11T03:15:32.896Z,14.30
2019-05-11T03:18:01.752Z,11.83
2019-05-11T03:20:30.981Z,13.63
2019-05-11T03:22:59.748Z,17.17
2019-05-11T03:25:28.864Z,15.93
2019-05-11T03:27:57.957Z,14.73
2019-05-11T03:30:26.817Z,20.70
2019-05-11T03:32:55.994Z,36.80
2019-05-11T03:35:24.767Z,24.73
2019-05-11T03:37:53.544Z,19.80
2019-05-11T03:40:22.337Z,16.10
2019-05-11T03:42:51.530Z,17.43
2019-05-11T03:45:20.381Z,19.63
2019-05-11T03:47:49.148Z,17.07
2019-05-11T03:50:18.096Z,17.40
2019-05-11T03:52:47.309Z,15.23
2019-05-11T03:55:16.333Z,16.53
2019-05-11T03:57:45.462Z,14.37
2019-05-11T04:00:14.491Z,18.47
2019-05-11T04:02:43.673Z,16.80
2019-05-11T04:05:12.713Z,28.93
2019-05-11T04:07:41.488Z,19.27
2019-05-11T04:10:10.591Z,18.23
2019-05-11T04:12:39.364Z,14.97
2019-05-11T04:15:09.645Z,16.13
2019-05-11T04:17:38.409Z,17.47
2019-05-11T04:20:07.657Z,14.73
2019-05-11T04:22:36.428Z,16.37
2019-05-11T04:25:05.699Z,15.80
2019-05-11T04:27:34.469Z,14.33
2019-05-11T04:30:03.810Z,14.87
2019-05-11T04:32:32.889Z,13.53
2019-05-11T04:35:02.096Z,17.47
2019-05-11T04:37:31.139Z,13.87
2019-05-11T04:40:00.177Z,15.20
2019-05-11T04:42:28.952Z,14.80
2019-05-11T04:44:58.072Z,17.03
2019-05-11T04:47:27.271Z,15.47
2019-05-11T04:49:56.376Z,17.00
2019-05-11T04:52:25.157Z,18.10
2019-05-11T04:54:53.923Z,18.27
2019-05-11T04:57:22.988Z,20.97
2019-05-11T04:59:51.753Z,20.63
2019-05-11T05:02:21.813Z,22.13
2019-05-11T05:04:51.034Z,20.63
2019-05-11T05:07:19.836Z,17.40
2019-05-11T05:09:48.945Z,21.27
2019-05-11T05:12:18.264Z,18.03
2019-05-11T05:14:47.080Z,18.97
2019-05-11T05:17:15.884Z,21.10
2019-05-11T05:19:44.805Z,22.07
2019-05-11T05:22:13.671Z,17.67
2019-05-11T05:24:42.445Z,19.87
2019-05-11T05:27:11.224Z,21.57
2019-05-11T05:29:40.520Z,20.43
2019-05-11T05:32:09.370Z,22.33
2019-05-11T05:34:38.486Z,21.03
2019-05-11T05:37:07.290Z,21.53
2019-05-11T05:39:36.371Z,24.13
2019-05-11T05:42:05.171Z,23.87
2019-05-11T05:44:33.958Z,23.33
2019-05-11T05:47:02.747Z,26.23
2019-05-11T05:49:31.825Z,23.13
2019-05-11T05:52:00.924Z,28.70
2019-05-11T05:54:29.698Z,25.10
2019-05-11T05:56:58.804Z,24.30
2019-05-11T05:59:27.636Z,24.10
2019-05-11T06:01:56.853Z,24.50
2019-05-11T06:04:25.642Z,24.03
2019-05-11T06:06:54.786Z,23.17
2019-05-11T06:09:23.722Z,24.60
2019-05-11T06:11:52.871Z,26.73
2019-05-11T06:14:21.727Z,25.53
2019-05-11T06:16:50.588Z,25.00
2019-05-11T06:19:19.371Z,21.77
2019-05-11T06:21:48.159Z,21.27
2019-05-11T06:24:16.957Z,25.20
2019-05-11T06:26:45.814Z,19.60
2019-05-11T06:29:14.583Z,17.47
2019-05-11T06:31:43.692Z,18.03
2019-05-11T06:34:12.470Z,23.37
2019-05-11T06:36:41.668Z,17.93
2019-05-11T06:39:10.451Z,16.90
2019-05-11T06:41:39.247Z,17.80
2019-05-11T06:44:08.030Z,18.00
2019-05-11T06:46:36.826Z,16.13
2019-05-11T06:49:06.026Z,16.80
2019-05-11T06:51:34.875Z,14.20
2019-05-11T06:54:04.109Z,16.40
2019-05-11T06:56:32.895Z,14.73
2019-05-11T06:59:02.296Z,13.13
2019-05-11T07:01:31.434Z,16.70
2019-05-11T07:04:00.274Z,15.83
2019-05-11T07:06:30.593Z,12.97
2019-05-11T07:08:59.912Z,12.17
2019-05-11T07:11:28.687Z,13.83
2019-05-11T07:13:57.478Z,13.23
2019-05-11T07:16:26.302Z,10.63
2019-05-11T07:18:55.079Z,11.67
2019-05-11T07:21:24.167Z,14.87
2019-05-11T07:23:53.029Z,13.57
2019-05-11T07:26:22.216Z,14.77
2019-05-11T07:28:51.028Z,10.77
2019-05-11T07:31:19.852Z,12.47
2019-05-11T07:33:48.752Z,16.20
2019-05-11T07:36:17.884Z,12.10
2019-05-11T07:38:48.713Z,12.63
2019-05-11T07:41:17.703Z,12.90
2019-05-11T07:43:48.462Z,11.87
2019-05-11T07:46:18.189Z,14.07
2019-05-11T07:48:47.993Z,11.77
2019-05-11T07:51:18.293Z,18.63
2019-05-11T07:53:48.599Z,13.90
2019-05-11T07:56:18.736Z,13.37
2019-05-11T07:58:48.197Z,12.90
2019-05-11T08:01:18.873Z,10.63
2019-05-11T08:03:48.414Z,14.73
2019-05-11T08:06:18.323Z,11.77
2019-05-11T08:08:49.002Z,11.07
2019-05-11T08:11:18.463Z,13.40
2019-05-11T08:13:48.059Z,12.50
2019-05-11T08:16:18.570Z,10.47
2019-05-11T08:18:48.277Z,12.10
2019-05-11T08:21:17.959Z,14.17
2019-05-11T08:23:48.338Z,11.77
2019-05-11T08:26:19.063Z,11.80
2019-05-11T08:28:48.730Z,12.80
2019-05-11T08:31:18.759Z,13.77
2019-05-11T08:33:48.185Z,10.83
2019-05-11T08:36:18.383Z,15.33
2019-05-11T08:38:48.312Z,12.63
2019-05-11T08:41:18.471Z,16.23
2019-05-11T08:43:48.294Z,10.10
2019-05-11T08:46:18.595Z,14.77
2019-05-11T08:48:48.018Z,11.20
2019-05-11T08:51:18.673Z,10.27
2019-05-11T08:53:48.134Z,13.37
2019-05-11T08:56:18.943Z,14.23
2019-05-11T08:58:49.217Z,13.07
2019-05-11T09:01:18.624Z,12.57
2019-05-11T09:03:48.069Z,13.60
2019-05-11T09:06:17.931Z,14.23
2019-05-11T09:08:49.081Z,11.27
2019-05-11T09:11:19.085Z,15.53
2019-05-11T09:13:48.951Z,13.37
2019-05-11T09:16:19.038Z,13.20
2019-05-11T09:18:48.250Z,10.17
2019-05-11T09:21:19.107Z,12.37
2019-05-11T09:23:48.755Z,12.13
2019-05-11T09:26:18.432Z,19.43
2019-05-11T09:28:47.860Z,12.37
2019-05-11T09:31:18.637Z,10.10
2019-05-11T09:33:48.068Z,13.77
2019-05-11T09:36:18.102Z,8.33
2019-05-11T09:38:49.048Z,9.63
2019-05-11T09:41:18.361Z,8.07
2019-05-11T09:43:48.280Z,11.83
2019-05-11T09:46:18.917Z,13.23
2019-05-11T09:48:48.495Z,9.33
2019-05-11T09:51:18.379Z,12.13
2019-05-11T09:53:48.470Z,11.80
2019-05-11T09:56:18.460Z,7.07
2019-05-11T09:58:48.196Z,11.80
2019-05-11T10:01:18.270Z,8.70
2019-05-11T10:03:48.182Z,9.30
2019-05-11T10:06:19.042Z,12.07
2019-05-11T10:08:48.749Z,12.33
2019-05-11T10:11:18.969Z,8.40
2019-05-11T10:13:48.120Z,13.80
2019-05-11T10:16:17.875Z,18.43
2019-05-11T10:18:49.256Z,11.17
2019-05-11T10:21:18.927Z,8.67
2019-05-11T10:23:48.969Z,12.47
2019-05-11T10:26:18.874Z,9.37
2019-05-11T10:28:48.524Z,9.67
2019-05-11T10:31:18.005Z,12.37
2019-05-11T10:33:49.020Z,13.00
2019-05-11T10:36:18.788Z,10.07
2019-05-11T10:38:48.640Z,7.70
2019-05-11T10:41:18.348Z,10.67
2019-05-11T10:43:49.021Z,9.63
2019-05-11T10:46:23.118Z,14.63
2019-05-11T10:48:48.816Z,13.10
2019-05-11T10:51:18.586Z,15.60
2019-05-11T10:53:51.267Z,13.00
2019-05-11T10:56:18.315Z,11.70
2019-05-11T10:58:48.210Z,6.10
2019-05-11T11:01:18.131Z,11.77
2019-05-11T11:03:48.338Z,12.07
2019-05-11T11:06:18.871Z,7.03
2019-05-11T11:08:48.787Z,12.00
2019-05-11T11:11:18.693Z,13.60
2019-05-11T11:13:48.328Z,8.73
2019-05-11T11:16:35.116Z,10.50
2019-05-11T11:18:48.674Z,10.27
2019-05-11T11:21:22.548Z,11.23
2019-05-11T11:23:48.751Z,16.30
2019-05-11T11:26:18.399Z,14.67
2019-05-11T11:28:47.997Z,13.63
2019-05-11T11:31:18.732Z,15.73
2019-05-11T11:33:48.971Z,12.73
2019-05-11T11:36:18.121Z,14.67
2019-05-11T11:38:47.903Z,18.53
2019-05-11T11:41:18.467Z,28.73
2019-05-11T11:43:48.310Z,25.17
2019-05-11T11:46:18.802Z,18.93
2019-05-11T11:48:48.954Z,16.70
2019-05-11T11:51:18.741Z,13.37
2019-05-11T11:53:48.128Z,18.77
2019-05-11T11:56:19.171Z,20.20
2019-05-11T11:58:48.949Z,15.13
2019-05-11T12:01:18.945Z,13.07
2019-05-11T12:03:49.053Z,15.33
2019-05-11T12:06:18.428Z,17.93
2019-05-11T12:08:49.761Z,13.97
2019-05-11T12:11:18.937Z,13.13
2019-05-11T12:13:47.937Z,12.13
2019-05-11T12:16:17.971Z,10.43
2019-05-11T12:18:48.705Z,14.63
2019-05-11T12:21:18.633Z,15.73
2019-05-11T12:23:48.670Z,17.13
2019-05-11T12:26:18.059Z,15.57
2019-05-11T12:28:49.031Z,19.10
2019-05-11T12:31:18.511Z,11.23
2019-05-11T12:33:48.493Z,14.13
2019-05-11T12:36:18.779Z,13.53
2019-05-11T12:38:48.979Z,13.37
2019-05-11T12:41:19.033Z,13.53
2019-05-11T12:43:48.915Z,13.13
2019-05-11T12:46:18.845Z,14.23
2019-05-11T12:48:48.648Z,12.93
2019-05-11T12:51:18.574Z,14.23
2019-05-11T12:53:48.046Z,14.60
2019-05-11T12:56:18.990Z,17.47
2019-05-11T12:58:49.195Z,15.03
2019-05-11T13:01:18.796Z,16.57
2019-05-11T13:03:49.181Z,17.23
2019-05-11T13:06:19.041Z,14.73
2019-05-11T13:08:48.575Z,15.50
2019-05-11T13:11:18.657Z,13.47
2019-05-11T13:13:48.535Z,15.57
2019-05-11T13:16:18.488Z,13.83
2019-05-11T13:18:48.741Z,14.47
2019-05-11T13:21:18.456Z,13.43
2019-05-11T13:23:48.958Z,12.17
2019-05-11T13:26:18.216Z,17.07
2019-05-11T13:28:48.487Z,13.60
2019-05-11T13:31:18.828Z,12.23
2019-05-11T13:33:48.295Z,15.23
2019-05-11T13:36:18.557Z,13.63
2019-05-11T13:38:48.555Z,13.97
2019-05-11T13:41:18.902Z,11.33
2019-05-11T13:43:48.555Z,12.70
2019-05-11T13:46:18.073Z,12.93
2019-05-11T13:48:47.836Z,12.80
2019-05-11T13:51:18.238Z,15.10
2019-05-11T13:53:48.146Z,16.30
2019-05-11T13:56:18.586Z,15.13
2019-05-11T13:58:48.827Z,17.17
2019-05-11T14:01:18.527Z,10.93
2019-05-11T14:03:48.396Z,12.53
2019-05-11T14:06:18.687Z,13.73
2019-05-11T14:08:48.338Z,12.50
2019-05-11T14:11:18.135Z,15.13
2019-05-11T14:13:48.197Z,11.13
2019-05-11T14:16:18.647Z,11.07
2019-05-11T14:18:48.828Z,11.00
2019-05-11T14:21:18.626Z,11.37
2019-05-11T14:23:48.683Z,9.73
2019-05-11T14:26:19.185Z,11.13
2019-05-11T14:28:48.740Z,10.60
2019-05-11T14:31:18.886Z,14.77
2019-05-11T14:33:48.935Z,19.23
2019-05-11T14:36:18.468Z,14.70
2019-05-11T14:38:48.799Z,13.70
2019-05-11T14:41:18.482Z,11.47
2019-05-11T14:43:48.981Z,14.17
2019-05-11T14:46:18.318Z,13.53
2019-05-11T14:48:48.067Z,10.50
2019-05-11T14:51:18.021Z,12.70
2019-05-11T14:53:48.194Z,12.00
2019-05-11T14:56:18.988Z,12.23
2019-05-11T14:58:49.221Z,14.33
2019-05-11T15:01:18.678Z,12.60
2019-05-11T15:03:48.649Z,10.53
2019-05-11T15:06:18.782Z,10.17
2019-05-11T15:08:48.342Z,13.03
2019-05-11T15:11:19.159Z,14.33
2019-05-11T15:13:49.083Z,11.23
2019-05-11T15:16:18.704Z,11.60
2019-05-11T15:18:48.646Z,13.97
2019-05-11T15:21:18.860Z,13.63
2019-05-11T15:23:48.345Z,12.97
2019-05-11T15:26:18.756Z,11.13
2019-05-11T15:28:48.681Z,10.27
2019-05-11T15:31:22.061Z,12.87
2019-05-11T15:33:48.996Z,14.77
2019-05-11T15:36:19.284Z,12.70
2019-05-11T15:38:48.711Z,11.30
2019-05-11T15:41:17.951Z,12.97
2019-05-11T15:43:48.042Z,12.70
2019-05-11T15:46:19.454Z,14.43
2019-05-11T15:48:56.773Z,15.60
2019-05-11T15:51:18.904Z,13.63
2019-05-11T15:53:50.259Z,15.23
2019-05-11T15:56:19.551Z,13.50
2019-05-11T15:59:23.361Z,15.97
2019-05-11T16:01:54.614Z,12.53
2019-05-11T16:04:23.791Z,11.07
2019-05-11T16:06:53.223Z,11.07
2019-05-11T16:09:22.539Z,10.80
2019-05-11T16:11:51.327Z,15.23
2019-05-11T16:14:20.485Z,10.83
2019-05-11T16:16:49.332Z,9.60
2019-05-11T16:19:19.351Z,12.70
2019-05-11T16:21:48.796Z,12.80
2019-05-11T16:24:17.621Z,17.53
2019-05-11T16:26:47.506Z,10.67
2019-05-11T16:29:38.469Z,13.23
2019-05-11T16:32:08.346Z,13.27
2019-05-11T16:34:38.172Z,14.40
2019-05-11T16:37:10.042Z,15.10
2019-05-11T16:39:38.577Z,16.17
2019-05-11T16:42:08.481Z,12.43
2019-05-11T16:44:37.885Z,30.13
2019-05-11T16:47:07.896Z,26.97
2019-05-11T16:49:38.434Z,28.23
2019-05-11T16:52:10.072Z,17.43
2019-05-11T16:54:39.119Z,23.87
2019-05-11T16:57:08.571Z,12.90
2019-05-11T16:59:39.624Z,10.03
2019-05-11T17:02:08.317Z,14.03
2019-05-11T17:04:39.832Z,13.33
2019-05-11T17:07:08.551Z,13.10
2019-05-11T17:09:37.911Z,10.40
2019-05-11T17:12:08.579Z,11.37
2019-05-11T17:14:54.167Z,11.60
2019-05-11T17:17:22.947Z,16.00
2019-05-11T17:19:52.106Z,10.87
2019-05-11T17:22:21.159Z,16.03
2019-05-11T17:24:50.020Z,13.97
2019-05-11T17:27:18.802Z,13.87
2019-05-11T17:29:48.776Z,11.10
2019-05-11T17:32:17.804Z,14.60
2019-05-11T17:34:47.773Z,13.30
2019-05-11T17:37:18.334Z,10.47
2019-05-11T17:39:48.084Z,14.80
2019-05-11T17:42:18.163Z,7.57
2019-05-11T17:44:48.421Z,11.43
2019-05-11T17:47:23.496Z,9.43
2019-05-11T17:49:59.564Z,15.63
2019-05-11T17:52:21.814Z,14.53
2019-05-11T17:54:50.984Z,17.37
2019-05-11T17:57:20.039Z,13.33
2019-05-11T17:59:48.896Z,13.37
2019-05-11T18:02:18.219Z,14.20
2019-05-11T18:04:49.296Z,18.83
2019-05-11T18:07:27.516Z,11.23
2019-05-11T18:09:48.803Z,10.87
2019-05-11T18:12:17.885Z,16.47
2019-05-11T18:14:48.209Z,10.30
2019-05-11T18:17:17.978Z,12.23
2019-05-11T18:19:46.940Z,10.20
2019-05-11T18:22:17.808Z,8.90
2019-05-11T18:24:49.004Z,12.33
2019-05-11T18:27:18.461Z,10.00
2019-05-11T18:29:48.563Z,11.43
2019-05-11T18:32:17.503Z,12.40
2019-05-11T18:34:48.471Z,8.33
2019-05-11T18:37:18.699Z,13.40
2019-05-11T18:39:48.408Z,11.33
2019-05-11T18:42:18.567Z,13.10
2019-05-11T18:44:48.266Z,13.13
2019-05-11T18:47:18.319Z,13.93
2019-05-11T18:49:48.441Z,13.20
2019-05-11T18:52:18.822Z,10.27
2019-05-11T18:54:48.382Z,8.73
2019-05-11T18:57:18.735Z,9.97
2019-05-11T18:59:48.417Z,9.30
2019-05-11T19:02:17.619Z,9.33
2019-05-11T19:04:48.364Z,11.90
2019-05-11T19:07:19.656Z,10.37
2019-05-11T19:09:48.538Z,22.10
2019-05-11T19:12:18.758Z,11.20
2019-05-11T19:14:48.117Z,12.93
2019-05-11T19:17:18.147Z,7.17
2019-05-11T19:19:48.612Z,10.27
2019-05-11T19:22:18.341Z,9.80
2019-05-11T19:24:47.669Z,13.17
2019-05-11T19:27:18.582Z,11.33
2019-05-11T19:29:48.387Z,13.17
2019-05-11T19:32:19.203Z,13.63
2019-05-11T19:34:48.363Z,9.93
2019-05-11T19:37:18.801Z,11.00
2019-05-11T19:39:50.599Z,16.17
2019-05-11T19:42:18.513Z,15.57
2019-05-11T19:44:48.060Z,10.23
2019-05-11T19:47:18.114Z,8.60
2019-05-11T19:49:47.919Z,13.27
2019-05-11T19:52:17.791Z,11.13
2019-05-11T19:54:48.712Z,9.23
2019-05-11T19:57:17.964Z,13.13
2019-05-11T19:59:48.077Z,11.03
2019-05-11T20:02:17.884Z,14.17
2019-05-11T20:04:48.132Z,13.23
2019-05-11T20:07:18.240Z,10.47
2019-05-11T20:09:47.284Z,15.63
2019-05-11T20:12:17.876Z,14.47
2019-05-11T20:14:48.238Z,9.40
2019-05-11T20:17:18.162Z,14.73
2019-05-11T20:19:49.082Z,13.30
2019-05-11T20:22:17.602Z,9.87
2019-05-11T20:24:47.645Z,14.23
2019-05-11T20:27:18.581Z,9.37
2019-05-11T20:29:47.814Z,14.90
2019-05-11T20:32:18.718Z,12.37
2019-05-11T20:34:48.317Z,9.83
2019-05-11T20:37:18.202Z,12.07
2019-05-11T20:39:48.167Z,12.20
2019-05-11T20:42:18.103Z,8.93
2019-05-11T20:44:47.079Z,13.30
2019-05-11T20:47:17.438Z,15.23
2019-05-11T20:49:48.140Z,11.90
2019-05-11T20:52:17.804Z,10.80
2019-05-11T20:54:47.810Z,15.67
2019-05-11T20:57:17.986Z,12.33
2019-05-11T20:59:47.593Z,10.33
2019-05-11T21:02:18.253Z,13.17
2019-05-11T21:04:49.090Z,14.53
2019-05-11T21:07:20.016Z,14.17
2019-05-11T21:09:48.503Z,16.30
2019-05-11T21:12:18.453Z,10.07
2019-05-11T21:14:48.532Z,14.03
2019-05-11T21:17:18.232Z,13.93
2019-05-11T21:19:47.916Z,17.10
2019-05-11T21:22:16.779Z,12.53
2019-05-11T21:24:49.351Z,8.87
2019-05-11T21:27:19.958Z,9.93
2019-05-11T21:29:48.945Z,17.53
2019-05-11T21:32:18.026Z,9.70
2019-05-11T21:34:48.908Z,11.87
2019-05-11T21:37:18.313Z,6.53
2019-05-11T21:39:48.190Z,9.67
2019-05-11T21:42:18.170Z,7.70
2019-05-11T21:44:47.169Z,8.63
2019-05-11T21:47:18.250Z,12.77
2019-05-11T21:49:48.546Z,11.87
2019-05-11T21:52:18.168Z,8.13
2019-05-11T21:54:49.106Z,12.37
2019-05-11T21:57:18.557Z,10.50
2019-05-11T21:59:48.484Z,8.40
2019-05-11T22:02:18.467Z,10.53
2019-05-11T22:04:47.987Z,7.23
2019-05-11T22:07:17.239Z,10.50
2019-05-11T22:09:46.090Z,15.00
2019-05-11T22:12:14.931Z,9.00
2019-05-11T22:14:44.055Z,10.77
2019-05-11T22:17:12.838Z,8.27
2019-05-11T22:19:41.768Z,20.17
2019-05-11T22:22:21.170Z,10.97
2019-05-11T22:24:41.708Z,8.87
2019-05-11T22:27:10.472Z,14.90
2019-05-11T22:29:39.247Z,8.73
2019-05-11T22:32:08.274Z,10.97
2019-05-11T22:34:37.961Z,8.97
2019-05-11T22:37:08.590Z,10.23
2019-05-11T22:39:37.810Z,6.33
2019-05-11T22:42:07.914Z,7.70
2019-05-11T22:44:38.652Z,11.50
2019-05-11T22:47:08.944Z,9.63
2019-05-11T22:49:38.509Z,5.77
2019-05-11T22:52:08.570Z,7.47
2019-05-11T22:54:38.297Z,9.47
2019-05-11T22:57:08.120Z,9.27
2019-05-11T22:59:38.502Z,14.40
2019-05-11T23:02:07.741Z,7.27
2019-05-11T23:04:38.169Z,11.57
2019-05-11T23:07:07.940Z,9.53
2019-05-11T23:09:38.156Z,12.40
2019-05-11T23:12:08.997Z,8.97
2019-05-11T23:14:37.871Z,9.00
2019-05-11T23:17:08.107Z,8.27
2019-05-11T23:19:38.110Z,7.77
2019-05-11T23:22:08.240Z,5.97
2019-05-11T23:24:37.504Z,10.43
2019-05-11T23:27:08.017Z,8.30
2019-05-11T23:29:38.381Z,13.47
2019-05-11T23:32:08.610Z,9.90
2019-05-11T23:34:38.741Z,7.67
2019-05-11T23:37:08.032Z,13.53
2019-05-11T23:39:38.773Z,5.93
2019-05-11T23:42:08.089Z,9.00
2019-05-11T23:44:37.344Z,9.33
2019-05-11T23:47:06.171Z,10.40
2019-05-11T23:49:35.312Z,7.40
2019-05-11T23:52:04.138Z,7.20
2019-05-11T23:54:32.923Z,10.03
2019-05-11T23:57:02.000Z,9.60
2019-05-11T23:59:31.077Z,12.53
